createdAt,value
2017-06-18T00:00:43.441Z,18.60
2017-06-18T00:03:11.773Z,18.50
2017-06-18T00:05:40.071Z,18.50
2017-06-18T00:08:09.130Z,18.50
2017-06-18T00:10:37.474Z,18.40
2017-06-18T00:13:05.774Z,18.40
2017-06-18T00:15:34.092Z,18.40
2017-06-18T00:18:02.395Z,18.40
2017-06-18T00:20:30.718Z,18.50
2017-06-18T00:22:59.025Z,18.40
2017-06-18T00:25:28.113Z,18.50
2017-06-18T00:27:56.437Z,18.50
2017-06-18T00:30:24.761Z,18.50
2017-06-18T00:32:53.067Z,18.50
2017-06-18T00:35:22.173Z,18.50
2017-06-18T00:37:51.233Z,18.40
2017-06-18T00:40:19.534Z,18.40
2017-06-18T00:42:48.632Z,18.40
2017-06-18T00:45:17.694Z,18.40
2017-06-18T00:47:46.017Z,18.40
2017-06-18T00:50:14.452Z,18.30
2017-06-18T00:52:42.750Z,18.30
2017-06-18T00:55:11.868Z,18.20
2017-06-18T00:57:40.166Z,18.20
2017-06-18T01:00:08.485Z,18.20
2017-06-18T01:02:36.789Z,18.20
2017-06-18T01:05:05.880Z,18.20
2017-06-18T01:07:34.942Z,18.20
2017-06-18T01:10:03.281Z,18.20
2017-06-18T01:12:31.577Z,18.20
2017-06-18T01:14:59.886Z,18.20
2017-06-18T01:17:28.210Z,18.20
2017-06-18T01:19:56.525Z,18.20
2017-06-18T01:22:25.618Z,18.30
2017-06-18T01:24:54.689Z,18.40
2017-06-18T01:27:23.069Z,18.40
2017-06-18T01:29:51.365Z,18.40
2017-06-18T01:32:20.466Z,18.30
2017-06-18T01:34:49.573Z,18.40
2017-06-18T01:37:17.884Z,18.30
2017-06-18T01:39:46.197Z,18.40
2017-06-18T01:42:14.537Z,18.40
2017-06-18T01:44:42.833Z,18.50
2017-06-18T01:47:11.628Z,18.50
2017-06-18T01:49:39.977Z,18.40
2017-06-18T01:52:08.274Z,18.50
2017-06-18T01:54:36.581Z,18.60
2017-06-18T01:57:04.919Z,18.60
2017-06-18T01:59:33.217Z,18.50
2017-06-18T02:02:01.514Z,18.40
2017-06-18T02:04:30.613Z,18.20
2017-06-18T02:06:59.675Z,18.20
2017-06-18T02:09:28.774Z,18.20
2017-06-18T02:11:57.072Z,18.10
2017-06-18T02:14:25.372Z,18.20
2017-06-18T02:16:53.721Z,18.20
2017-06-18T02:19:22.021Z,18.20
2017-06-18T02:21:50.313Z,18.20
2017-06-18T02:24:18.655Z,18.20
2017-06-18T02:26:46.961Z,18.20
2017-06-18T02:29:15.258Z,18.20
2017-06-18T02:31:43.597Z,18.20
2017-06-18T02:34:11.897Z,18.20
2017-06-18T02:36:40.280Z,18.20
2017-06-18T02:39:08.661Z,18.30
2017-06-18T02:41:36.967Z,18.30
2017-06-18T02:44:06.045Z,18.30
2017-06-18T02:46:34.386Z,18.30
2017-06-18T02:49:02.692Z,18.30
2017-06-18T02:51:30.994Z,18.30
2017-06-18T02:54:00.101Z,18.30
2017-06-18T02:56:29.190Z,18.20
2017-06-18T02:58:58.273Z,18.30
2017-06-18T03:01:26.650Z,18.20
2017-06-18T03:03:54.950Z,18.20
2017-06-18T03:06:24.013Z,18.20
2017-06-18T03:08:52.337Z,18.20
2017-06-18T03:11:20.666Z,18.20
2017-06-18T03:13:48.965Z,18.20
2017-06-18T03:16:17.338Z,18.20
2017-06-18T03:18:45.644Z,18.20
2017-06-18T03:21:19.531Z,18.20
2017-06-18T03:23:48.597Z,18.10
2017-06-18T03:26:16.911Z,18.10
2017-06-18T03:28:46.013Z,18.20
2017-06-18T03:31:15.081Z,18.20
2017-06-18T03:33:43.397Z,18.10
2017-06-18T03:36:11.758Z,18.10
2017-06-18T03:38:40.821Z,18.10
2017-06-18T03:41:09.131Z,18.10
2017-06-18T03:43:38.244Z,18.10
2017-06-18T03:46:06.546Z,18.10
2017-06-18T03:48:34.853Z,18.10
2017-06-18T03:51:03.195Z,18.10
2017-06-18T03:53:31.495Z,18.10
2017-06-18T03:55:59.788Z,18.10
2017-06-18T03:58:28.119Z,18.10
2017-06-18T04:00:56.421Z,18.00
2017-06-18T04:03:24.760Z,18.00
2017-06-18T04:05:53.097Z,18.00
2017-06-18T04:08:21.405Z,18.00
2017-06-18T04:10:50.508Z,18.00
2017-06-18T04:13:18.809Z,18.00
2017-06-18T04:15:47.171Z,18.10
2017-06-18T04:18:15.511Z,18.10
2017-06-18T04:20:43.810Z,18.00
2017-06-18T04:23:12.117Z,18.10
2017-06-18T04:25:40.450Z,18.10
2017-06-18T04:28:08.785Z,18.10
2017-06-18T04:30:37.855Z,18.10
2017-06-18T04:33:06.162Z,18.10
2017-06-18T04:35:35.277Z,18.10
2017-06-18T04:38:03.572Z,18.10
2017-06-18T04:40:31.870Z,18.10
2017-06-18T04:43:00.953Z,18.10
2017-06-18T04:45:29.250Z,18.10
2017-06-18T04:47:57.585Z,18.20
2017-06-18T04:50:25.993Z,18.20
2017-06-18T04:52:55.081Z,18.30
2017-06-18T04:55:23.433Z,18.20
2017-06-18T04:57:51.817Z,18.30
2017-06-18T05:00:20.118Z,18.30
2017-06-18T05:02:49.209Z,18.40
2017-06-18T05:05:17.506Z,18.40
2017-06-18T05:07:46.601Z,18.40
2017-06-18T05:10:14.961Z,18.40
2017-06-18T05:12:43.266Z,18.50
2017-06-18T05:15:11.570Z,18.50
2017-06-18T05:17:39.922Z,18.50
2017-06-18T05:20:08.221Z,18.50
2017-06-18T05:22:36.538Z,18.60
2017-06-18T05:25:04.885Z,18.60
2017-06-18T05:27:33.191Z,18.60
2017-06-18T05:30:01.535Z,18.70
2017-06-18T05:32:29.870Z,18.70
2017-06-18T05:34:58.189Z,19.00
2017-06-18T05:37:26.487Z,19.10
2017-06-18T05:39:54.848Z,19.20
2017-06-18T05:42:23.149Z,19.40
2017-06-18T05:44:51.467Z,19.50
2017-06-18T05:47:20.582Z,20.00
2017-06-18T05:49:48.937Z,19.90
2017-06-18T05:52:18.014Z,20.50
2017-06-18T05:54:46.317Z,20.40
2017-06-18T05:57:15.415Z,21.00
2017-06-18T05:59:43.743Z,21.00
2017-06-18T06:02:12.066Z,21.40
2017-06-18T06:04:40.375Z,21.80
2017-06-18T06:07:09.501Z,25.20
2017-06-18T06:09:37.798Z,25.10
2017-06-18T06:12:06.153Z,27.10
2017-06-18T06:14:34.469Z,28.70
2017-06-18T06:17:03.528Z,30.80
2017-06-18T06:19:31.880Z,30.70
2017-06-18T06:22:00.984Z,32.00
2017-06-18T06:24:29.272Z,31.90
2017-06-18T06:26:57.701Z,32.60
2017-06-18T06:29:26.797Z,33.50
2017-06-18T06:31:55.857Z,34.10
2017-06-18T06:34:24.155Z,34.00
2017-06-18T06:36:52.488Z,34.50
2017-06-18T06:39:20.887Z,34.90
2017-06-18T06:41:49.954Z,35.60
2017-06-18T06:44:18.279Z,35.60
2017-06-18T06:46:46.634Z,36.10
2017-06-18T06:49:14.930Z,35.40
2017-06-18T06:51:43.233Z,34.90
2017-06-18T06:54:12.341Z,35.30
2017-06-18T06:56:40.663Z,35.30
2017-06-18T06:59:08.961Z,35.00
2017-06-18T07:01:37.289Z,34.20
2017-06-18T07:04:05.581Z,33.50
2017-06-18T07:06:33.905Z,33.30
2017-06-18T07:09:03.019Z,34.50
2017-06-18T07:11:31.318Z,34.50
2017-06-18T07:13:59.609Z,34.50
2017-06-18T07:16:28.159Z,34.20
2017-06-18T07:18:56.448Z,32.80
2017-06-18T07:21:24.816Z,31.40
2017-06-18T07:23:53.125Z,30.50
2017-06-18T07:26:21.418Z,31.40
2017-06-18T07:28:49.747Z,32.50
2017-06-18T07:31:18.045Z,33.40
2017-06-18T07:33:46.338Z,34.10
2017-06-18T07:36:14.662Z,34.70
2017-06-18T07:38:43.779Z,35.60
2017-06-18T07:41:12.073Z,35.50
2017-06-18T07:43:40.704Z,35.80
2017-06-18T07:46:09.035Z,36.10
2017-06-18T07:48:37.329Z,36.50
2017-06-18T07:51:05.629Z,36.40
2017-06-18T07:53:33.963Z,35.50
2017-06-18T07:56:02.278Z,35.50
2017-06-18T07:58:30.573Z,35.90
2017-06-18T08:00:58.909Z,36.20
2017-06-18T08:03:27.201Z,36.40
2017-06-18T08:05:55.509Z,36.30
2017-06-18T08:08:23.868Z,36.30
2017-06-18T08:10:52.234Z,36.40
2017-06-18T08:13:20.532Z,36.50
2017-06-18T08:15:48.865Z,36.60
2017-06-18T08:18:17.168Z,36.70
2017-06-18T08:20:45.466Z,36.60
2017-06-18T08:23:13.805Z,36.50
2017-06-18T08:25:42.105Z,36.40
2017-06-18T08:28:10.405Z,36.40
2017-06-18T08:30:38.774Z,36.30
2017-06-18T08:33:07.073Z,36.10
2017-06-18T08:35:36.134Z,35.90
2017-06-18T08:38:04.470Z,35.90
2017-06-18T08:40:32.765Z,35.80
2017-06-18T08:43:01.062Z,35.90
2017-06-18T08:45:29.380Z,35.80
2017-06-18T08:47:58.854Z,35.10
2017-06-18T08:50:27.287Z,35.10
2017-06-18T08:52:55.678Z,35.10
2017-06-18T08:55:24.031Z,35.10
2017-06-18T08:57:52.370Z,34.90
2017-06-18T09:00:20.666Z,34.90
2017-06-18T09:02:49.001Z,34.70
2017-06-18T09:05:17.298Z,34.70
2017-06-18T09:07:45.596Z,34.40
2017-06-18T09:10:13.933Z,33.70
2017-06-18T09:12:42.235Z,32.80
2017-06-18T09:15:10.533Z,32.20
2017-06-18T09:17:38.861Z,32.20
2017-06-18T09:20:07.154Z,32.40
2017-06-18T09:22:35.477Z,32.50
2017-06-18T09:25:03.777Z,32.40
2017-06-18T09:27:32.108Z,32.10
2017-06-18T09:30:00.484Z,31.60
2017-06-18T09:32:29.054Z,31.10
2017-06-18T09:34:57.356Z,30.90
2017-06-18T09:37:25.721Z,30.90
2017-06-18T09:39:54.034Z,31.00
2017-06-18T09:42:23.137Z,31.10
2017-06-18T09:44:51.501Z,31.10
2017-06-18T09:47:19.818Z,31.00
2017-06-18T09:49:48.113Z,30.90
2017-06-18T09:52:17.226Z,30.10
2017-06-18T09:54:45.519Z,30.10
2017-06-18T09:57:13.871Z,29.90
2017-06-18T09:59:42.968Z,30.10
2017-06-18T10:02:11.261Z,30.10
2017-06-18T10:04:39.565Z,30.00
2017-06-18T10:07:07.946Z,29.50
2017-06-18T10:09:36.242Z,28.90
2017-06-18T10:12:04.533Z,28.60
2017-06-18T10:14:32.865Z,28.50
2017-06-18T10:17:01.165Z,28.40
2017-06-18T10:19:29.517Z,28.50
2017-06-18T10:22:03.336Z,28.80
2017-06-18T10:24:31.663Z,28.80
2017-06-18T10:27:00.720Z,29.00
2017-06-18T10:29:29.057Z,29.00
2017-06-18T10:31:57.353Z,29.00
2017-06-18T10:34:25.645Z,28.80
2017-06-18T10:36:53.994Z,28.90
2017-06-18T10:39:22.292Z,29.00
2017-06-18T10:41:50.585Z,29.10
2017-06-18T10:44:18.908Z,29.10
2017-06-18T10:46:48.002Z,28.80
2017-06-18T10:49:17.110Z,28.80
2017-06-18T10:51:45.405Z,28.70
2017-06-18T10:54:13.702Z,28.60
2017-06-18T10:56:42.020Z,28.60
2017-06-18T10:59:11.081Z,28.50
2017-06-18T11:01:39.437Z,28.50
2017-06-18T11:04:07.728Z,28.20
2017-06-18T11:06:36.028Z,28.00
2017-06-18T11:09:04.350Z,27.80
2017-06-18T11:11:32.677Z,27.90
2017-06-18T11:14:00.992Z,27.80
2017-06-18T11:16:29.353Z,27.60
2017-06-18T11:18:57.650Z,27.70
2017-06-18T11:21:25.942Z,27.80
2017-06-18T11:23:54.270Z,27.90
2017-06-18T11:26:22.609Z,28.10
2017-06-18T11:28:50.906Z,28.00
2017-06-18T11:31:19.994Z,28.10
2017-06-18T11:33:49.061Z,28.00
2017-06-18T11:36:17.397Z,28.00
2017-06-18T11:38:45.729Z,28.00
2017-06-18T11:41:14.025Z,28.00
2017-06-18T11:43:43.081Z,28.30
2017-06-18T11:46:11.433Z,28.30
2017-06-18T11:48:39.732Z,28.30
2017-06-18T11:51:08.089Z,28.20
2017-06-18T11:53:36.420Z,27.90
2017-06-18T11:56:04.707Z,27.70
2017-06-18T11:58:33.977Z,27.40
2017-06-18T12:01:02.343Z,27.30
2017-06-18T12:03:30.639Z,27.30
2017-06-18T12:05:58.938Z,27.20
2017-06-18T12:08:28.045Z,27.20
2017-06-18T12:10:57.113Z,27.30
2017-06-18T12:13:25.429Z,27.30
2017-06-18T12:15:54.505Z,27.30
2017-06-18T12:18:22.833Z,27.30
2017-06-18T12:20:51.169Z,27.40
2017-06-18T12:23:20.335Z,27.60
2017-06-18T12:25:48.631Z,27.60
2017-06-18T12:28:16.994Z,27.60
2017-06-18T12:30:45.325Z,27.30
2017-06-18T12:33:13.633Z,27.30
2017-06-18T12:35:41.991Z,27.30
2017-06-18T12:38:10.293Z,27.40
2017-06-18T12:40:38.596Z,27.40
2017-06-18T12:43:06.935Z,27.30
2017-06-18T12:45:35.995Z,27.10
2017-06-18T12:48:04.296Z,27.10
2017-06-18T12:50:33.401Z,26.90
2017-06-18T12:53:02.461Z,26.80
2017-06-18T12:55:30.753Z,26.80
2017-06-18T12:57:59.097Z,26.80
2017-06-18T13:00:27.426Z,26.90
2017-06-18T13:02:56.489Z,26.90
2017-06-18T13:05:24.822Z,26.90
2017-06-18T13:07:53.310Z,27.10
2017-06-18T13:10:21.697Z,27.30
2017-06-18T13:12:50.010Z,27.20
2017-06-18T13:15:19.033Z,27.20
2017-06-18T13:17:47.386Z,27.30
2017-06-18T13:20:15.691Z,27.30
2017-06-18T13:22:44.752Z,27.40
2017-06-18T13:25:13.090Z,27.50
2017-06-18T13:27:41.383Z,27.40
2017-06-18T13:30:09.677Z,27.50
2017-06-18T13:32:38.000Z,27.50
2017-06-18T13:35:07.107Z,27.40
2017-06-18T13:37:35.401Z,27.40
2017-06-18T13:40:03.705Z,27.40
2017-06-18T13:42:32.088Z,27.40
2017-06-18T13:45:00.385Z,27.30
2017-06-18T13:47:28.681Z,27.30
2017-06-18T13:49:57.790Z,27.20
2017-06-18T13:52:26.082Z,27.20
2017-06-18T13:54:54.422Z,27.20
2017-06-18T13:57:22.758Z,27.30
2017-06-18T13:59:51.823Z,27.30
2017-06-18T14:02:20.113Z,27.30
2017-06-18T14:04:48.457Z,27.30
2017-06-18T14:07:16.832Z,27.20
2017-06-18T14:09:45.299Z,27.20
2017-06-18T14:12:13.648Z,27.20
2017-06-18T14:14:42.712Z,27.20
2017-06-18T14:17:11.006Z,27.20
2017-06-18T14:19:39.335Z,27.20
2017-06-18T14:22:07.645Z,27.10
2017-06-18T14:24:35.943Z,27.10
2017-06-18T14:27:05.114Z,26.90
2017-06-18T14:29:33.499Z,26.90
2017-06-18T14:32:01.848Z,26.90
2017-06-18T14:34:30.153Z,26.90
2017-06-18T14:36:58.452Z,26.90
2017-06-18T14:39:27.537Z,26.90
2017-06-18T14:41:55.873Z,26.90
2017-06-18T14:44:24.929Z,26.90
2017-06-18T14:46:53.233Z,26.90
2017-06-18T14:49:22.326Z,26.90
2017-06-18T14:51:51.393Z,26.90
2017-06-18T14:54:19.794Z,26.90
2017-06-18T14:56:48.865Z,26.90
2017-06-18T14:59:17.162Z,26.80
2017-06-18T15:01:45.497Z,26.90
2017-06-18T15:04:13.797Z,26.90
2017-06-18T15:06:42.110Z,26.90
2017-06-18T15:09:10.700Z,27.00
2017-06-18T15:11:39.005Z,27.00
2017-06-18T15:14:08.076Z,26.90
2017-06-18T15:16:37.129Z,26.80
2017-06-18T15:19:05.434Z,26.60
2017-06-18T15:21:33.776Z,26.60
2017-06-18T15:24:02.070Z,26.60
2017-06-18T15:26:30.378Z,26.60
2017-06-18T15:28:58.708Z,26.60
2017-06-18T15:31:27.019Z,26.60
2017-06-18T15:33:55.316Z,26.70
2017-06-18T15:36:23.992Z,26.60
2017-06-18T15:38:52.310Z,26.60
2017-06-18T15:41:21.364Z,26.70
2017-06-18T15:43:49.744Z,26.60
2017-06-18T15:46:18.042Z,26.70
2017-06-18T15:48:46.346Z,26.70
2017-06-18T15:51:14.679Z,26.70
2017-06-18T15:53:42.976Z,26.60
2017-06-18T15:56:12.048Z,26.80
2017-06-18T15:58:40.389Z,26.70
2017-06-18T16:01:08.698Z,26.70
2017-06-18T16:03:36.992Z,26.70
2017-06-18T16:06:05.357Z,26.70
2017-06-18T16:08:33.648Z,26.60
2017-06-18T16:11:01.959Z,26.60
2017-06-18T16:13:31.041Z,26.50
2017-06-18T16:16:00.102Z,26.50
2017-06-18T16:18:28.465Z,26.50
2017-06-18T16:20:56.793Z,26.50
2017-06-18T16:23:25.870Z,26.50
2017-06-18T16:25:54.202Z,26.50
2017-06-18T16:28:22.499Z,26.50
2017-06-18T16:30:50.796Z,26.60
2017-06-18T16:33:19.139Z,26.50
2017-06-18T16:35:47.445Z,26.60
2017-06-18T16:38:15.749Z,26.50
2017-06-18T16:40:44.104Z,26.50
2017-06-18T16:43:12.480Z,26.40
2017-06-18T16:45:40.773Z,26.40
2017-06-18T16:48:09.098Z,26.40
2017-06-18T16:50:37.426Z,26.40
2017-06-18T16:53:05.721Z,26.40
2017-06-18T16:55:34.114Z,26.40
2017-06-18T16:58:02.426Z,26.40
2017-06-18T17:00:30.725Z,26.40
2017-06-18T17:02:59.813Z,26.30
2017-06-18T17:05:28.875Z,26.30
2017-06-18T17:07:57.269Z,26.20
2017-06-18T17:10:25.624Z,26.20
2017-06-18T17:12:53.957Z,26.10
2017-06-18T17:15:22.298Z,26.10
2017-06-18T17:17:50.647Z,26.10
2017-06-18T17:20:18.955Z,26.00
2017-06-18T17:22:47.433Z,26.00
2017-06-18T17:25:15.765Z,26.00
2017-06-18T17:27:44.102Z,26.10
2017-06-18T17:30:12.403Z,25.90
2017-06-18T17:32:40.717Z,25.90
2017-06-18T17:35:09.818Z,25.90
2017-06-18T17:37:38.214Z,25.90
2017-06-18T17:40:06.510Z,25.80
2017-06-18T17:42:35.560Z,25.80
2017-06-18T17:45:04.625Z,25.70
2017-06-18T17:47:32.953Z,25.70
2017-06-18T17:50:01.335Z,25.70
2017-06-18T17:52:29.653Z,25.60
2017-06-18T17:54:58.032Z,25.60
2017-06-18T17:57:26.516Z,25.50
2017-06-18T17:59:54.808Z,25.50
2017-06-18T18:02:23.102Z,25.50
2017-06-18T18:04:52.201Z,25.30
2017-06-18T18:07:21.266Z,25.30
2017-06-18T18:09:49.603Z,25.20
2017-06-18T18:12:18.558Z,25.20
2017-06-18T18:14:47.673Z,25.20
2017-06-18T18:17:16.010Z,25.20
2017-06-18T18:19:44.311Z,25.10
2017-06-18T18:22:13.403Z,25.00
2017-06-18T18:24:42.547Z,25.00
2017-06-18T18:27:10.866Z,25.00
2017-06-18T18:29:39.168Z,25.00
2017-06-18T18:32:07.546Z,24.90
2017-06-18T18:34:36.133Z,24.80
2017-06-18T18:37:04.467Z,24.70
2017-06-18T18:39:32.805Z,24.70
2017-06-18T18:42:01.130Z,24.70
2017-06-18T18:44:29.465Z,24.70
2017-06-18T18:46:57.778Z,24.70
2017-06-18T18:49:26.103Z,24.60
2017-06-18T18:51:54.441Z,24.50
2017-06-18T18:54:22.748Z,24.40
2017-06-18T18:56:51.078Z,24.30
2017-06-18T18:59:19.429Z,24.30
2017-06-18T19:01:47.725Z,24.30
2017-06-18T19:04:16.030Z,24.20
2017-06-18T19:06:44.378Z,24.20
2017-06-18T19:09:12.677Z,24.10
2017-06-18T19:11:40.976Z,24.10
2017-06-18T19:14:10.095Z,24.00
2017-06-18T19:16:38.949Z,23.90
2017-06-18T19:19:07.271Z,24.00
2017-06-18T19:21:35.674Z,23.90
2017-06-18T19:24:04.211Z,23.90
2017-06-18T19:26:33.273Z,23.70
2017-06-18T19:29:01.918Z,23.70
2017-06-18T19:31:30.229Z,23.70
2017-06-18T19:33:58.797Z,23.70
2017-06-18T19:36:27.161Z,23.60
2017-06-18T19:38:55.824Z,23.60
2017-06-18T19:41:24.123Z,23.50
2017-06-18T19:43:53.374Z,23.40
2017-06-18T19:46:21.955Z,23.30
2017-06-18T19:48:50.256Z,23.30
2017-06-18T19:51:18.597Z,23.20
2017-06-18T19:53:46.899Z,23.10
2017-06-18T19:56:15.214Z,23.00
2017-06-18T19:58:43.617Z,22.90
2017-06-18T20:01:11.975Z,22.80
2017-06-18T20:03:41.054Z,22.80
2017-06-18T20:06:09.395Z,22.70
2017-06-18T20:08:37.800Z,22.70
2017-06-18T20:11:06.146Z,22.60
2017-06-18T20:13:34.461Z,22.60
2017-06-18T20:16:02.766Z,22.50
2017-06-18T20:18:31.882Z,22.40
2017-06-18T20:21:00.542Z,22.40
2017-06-18T20:23:28.866Z,22.40
2017-06-18T20:25:57.571Z,22.30
2017-06-18T20:28:25.910Z,22.20
2017-06-18T20:30:54.209Z,22.10
2017-06-18T20:33:22.560Z,22.10
2017-06-18T20:35:50.917Z,22.00
2017-06-18T20:38:19.454Z,22.00
2017-06-18T20:40:47.760Z,21.90
2017-06-18T20:43:16.089Z,21.90
2017-06-18T20:45:44.392Z,21.80
2017-06-18T20:48:13.514Z,21.60
2017-06-18T20:50:42.790Z,21.60
2017-06-18T20:53:11.891Z,21.60
2017-06-18T20:55:41.337Z,21.60
2017-06-18T20:58:09.641Z,21.50
2017-06-18T21:00:37.987Z,21.50
2017-06-18T21:03:06.285Z,21.50
2017-06-18T21:05:34.582Z,21.40
2017-06-18T21:08:03.268Z,21.40
2017-06-18T21:10:31.569Z,21.30
2017-06-18T21:13:00.863Z,21.20
2017-06-18T21:15:30.123Z,21.10
2017-06-18T21:17:58.428Z,21.10
2017-06-18T21:20:27.006Z,21.10
2017-06-18T21:22:55.342Z,21.10
2017-06-18T21:25:24.002Z,21.00
2017-06-18T21:27:52.412Z,21.00
2017-06-18T21:30:20.764Z,21.00
2017-06-18T21:32:49.235Z,20.90
2017-06-18T21:35:17.539Z,20.90
2017-06-18T21:37:46.470Z,20.90
2017-06-18T21:40:14.774Z,20.80
2017-06-18T21:42:43.949Z,20.80
2017-06-18T21:45:12.653Z,20.70
2017-06-18T21:47:40.999Z,20.70
2017-06-18T21:50:09.602Z,20.70
2017-06-18T21:52:38.118Z,20.60
2017-06-18T21:55:07.258Z,20.60
2017-06-18T21:57:35.570Z,20.60
2017-06-18T22:00:03.865Z,20.50
2017-06-18T22:02:33.025Z,20.50
2017-06-18T22:05:01.317Z,20.40
2017-06-18T22:07:29.673Z,20.40
2017-06-18T22:09:58.738Z,20.30
2017-06-18T22:12:27.068Z,20.30
2017-06-18T22:14:55.376Z,20.30
2017-06-18T22:17:23.675Z,20.30
2017-06-18T22:19:52.010Z,20.20
2017-06-18T22:22:20.310Z,20.20
2017-06-18T22:24:48.611Z,20.20
2017-06-18T22:27:16.941Z,20.20
2017-06-18T22:29:45.238Z,20.10
2017-06-18T22:32:13.577Z,20.10
2017-06-18T22:34:42.641Z,20.00
2017-06-18T22:37:10.963Z,20.00
2017-06-18T22:39:39.319Z,20.00
2017-06-18T22:42:07.622Z,19.90
2017-06-18T22:44:35.912Z,19.90
2017-06-18T22:47:04.338Z,19.90
2017-06-18T22:49:33.403Z,19.80
2017-06-18T22:52:02.489Z,19.80
2017-06-18T22:54:30.812Z,19.70
2017-06-18T22:56:59.914Z,19.70
2017-06-18T22:59:28.977Z,19.70
2017-06-18T23:01:57.301Z,19.60
2017-06-18T23:04:25.673Z,19.60
2017-06-18T23:06:53.976Z,19.60
2017-06-18T23:09:22.277Z,19.60
2017-06-18T23:11:50.645Z,19.60
2017-06-18T23:14:20.581Z,19.60
2017-06-18T23:16:48.921Z,19.50
2017-06-18T23:19:17.213Z,19.60
2017-06-18T23:21:45.523Z,19.50
2017-06-18T23:24:13.868Z,19.50
2017-06-18T23:26:42.165Z,19.50
2017-06-18T23:29:10.463Z,19.50
2017-06-18T23:31:39.553Z,19.40
2017-06-18T23:34:07.945Z,19.30
2017-06-18T23:36:37.012Z,19.30
2017-06-18T23:39:05.313Z,19.30
2017-06-18T23:41:34.414Z,19.30
2017-06-18T23:44:03.481Z,19.20
2017-06-18T23:46:31.788Z,19.20
2017-06-18T23:49:00.886Z,19.20
2017-06-18T23:51:29.945Z,19.20
2017-06-18T23:53:58.249Z,19.10
2017-06-18T23:56:27.345Z,19.10
2017-06-18T23:58:56.413Z,19.00
